createdAt,value
2023-03-17T00:56:28.866Z,500.00
2023-03-17T01:00:30.432Z,500.00
2023-03-17T01:04:30.170Z,400.00
2023-03-17T01:08:30.350Z,415.00
2023-03-17T01:12:30.524Z,501.00
2023-03-17T01:16:30.742Z,500.00
2023-03-17T01:20:31.263Z,504.00
2023-03-17T01:24:30.936Z,501.00
2023-03-17T01:28:31.051Z,508.00
2023-03-17T01:32:31.149Z,505.00
2023-03-17T01:36:31.207Z,503.00
2023-03-17T01:40:32.067Z,500.00
2023-03-17T01:44:31.401Z,502.00
2023-03-17T01:48:31.374Z,504.00
2023-03-17T01:52:31.435Z,503.00
2023-03-17T01:56:31.472Z,504.00
2023-03-17T02:00:32.013Z,512.00
2023-03-17T02:04:31.628Z,509.00
2023-03-17T02:12:31.700Z,508.00
2023-03-17T02:16:31.863Z,508.00
2023-03-17T02:20:32.385Z,509.00
2023-03-17T02:24:31.922Z,505.00
2023-03-17T02:28:32.079Z,508.00
2023-03-17T02:32:32.364Z,509.00
2023-03-17T02:36:32.447Z,508.00
2023-03-17T02:40:32.603Z,504.00
2023-03-17T02:44:32.778Z,507.00
2023-03-17T02:48:32.858Z,509.00
2023-03-17T02:52:32.855Z,507.00
2023-03-17T02:56:32.762Z,509.00
2023-03-17T03:00:32.927Z,505.00
2023-03-17T03:04:32.747Z,510.00
2023-03-17T03:08:32.748Z,504.00
2023-03-17T03:12:32.858Z,501.00
2023-03-17T03:16:32.910Z,508.00
2023-03-17T03:20:32.974Z,509.00
2023-03-17T03:24:32.945Z,507.00
2023-03-17T03:28:32.965Z,508.00
2023-03-17T03:32:33.075Z,506.00
2023-03-17T03:36:33.053Z,506.00
2023-03-17T03:40:33.123Z,507.00
2023-03-17T03:44:33.245Z,509.00
2023-03-17T03:48:33.278Z,507.00
2023-03-17T03:52:33.335Z,509.00
2023-03-17T03:56:33.499Z,507.00
2023-03-17T04:00:33.629Z,512.00
2023-03-17T04:04:33.699Z,512.00
2023-03-17T04:08:33.867Z,507.00
2023-03-17T12:36:37.957Z,1145.00
2023-03-17T12:40:37.948Z,1151.00
2023-03-17T12:44:37.907Z,1134.00
2023-03-17T12:48:38.149Z,1115.00
2023-03-17T15:04:39.073Z,1064.00
2023-03-17T15:08:39.079Z,1083.00
2023-03-17T15:12:38.951Z,1084.00
2023-03-17T15:16:38.935Z,1069.00
2023-03-17T15:20:39.132Z,1044.00
2023-03-17T15:24:38.999Z,1056.00
2023-03-17T15:28:39.017Z,1047.00
2023-03-17T15:32:39.143Z,1041.00
2023-03-17T15:36:39.076Z,1025.00
2023-03-17T15:40:38.591Z,1030.00
2023-03-17T15:44:39.718Z,1026.00
2023-03-17T15:48:38.561Z,1018.00
2023-03-17T15:52:39.032Z,1031.00
2023-03-17T15:56:38.500Z,1017.00
2023-03-17T16:00:38.468Z,1017.00
2023-03-17T16:04:38.516Z,1013.00
2023-03-17T16:08:38.574Z,996.00
2023-03-17T16:12:38.516Z,995.00
2023-03-17T16:16:38.500Z,992.00
2023-03-17T16:20:38.451Z,997.00
2023-03-17T16:24:38.425Z,984.00
2023-03-17T16:28:38.369Z,985.00
2023-03-17T16:32:38.387Z,973.00
2023-03-17T16:36:38.527Z,965.00
2023-03-17T16:40:38.506Z,975.00
2023-03-17T16:44:38.720Z,978.00
2023-03-17T16:48:38.371Z,973.00
2023-03-17T16:52:38.516Z,958.00
2023-03-17T16:56:38.332Z,961.00
2023-03-17T17:00:38.241Z,949.00
2023-03-17T17:04:38.216Z,951.00
2023-03-17T17:08:38.224Z,951.00
2023-03-17T17:12:38.136Z,933.00
2023-03-17T17:16:38.287Z,946.00
2023-03-17T17:20:38.193Z,938.00
2023-03-17T17:24:38.064Z,939.00
2023-03-17T17:28:38.073Z,929.00
2023-03-17T17:32:38.096Z,929.00
2023-03-17T17:36:37.940Z,916.00
2023-03-17T17:40:37.913Z,896.00
2023-03-17T17:44:38.746Z,903.00
2023-03-17T17:48:38.031Z,915.00
2023-03-17T17:52:38.031Z,906.00
2023-03-17T17:56:38.058Z,896.00
2023-03-17T18:00:38.033Z,893.00
2023-03-17T18:04:38.040Z,878.00
2023-03-17T18:08:37.962Z,883.00
2023-03-17T18:12:38.145Z,875.00
2023-03-17T18:16:38.587Z,867.00
2023-03-17T18:20:38.376Z,883.00
2023-03-17T18:24:38.366Z,884.00
2023-03-17T18:28:38.332Z,877.00
2023-03-17T18:32:38.340Z,852.00
2023-03-17T18:36:38.269Z,858.00
2023-03-17T18:40:38.211Z,864.00
2023-03-17T18:44:38.185Z,850.00
2023-03-17T18:48:38.162Z,851.00
2023-03-17T18:52:38.168Z,852.00
2023-03-17T18:56:38.308Z,842.00
2023-03-17T19:00:38.398Z,847.00
2023-03-17T19:04:38.621Z,837.00
2023-03-17T19:08:38.743Z,844.00
2023-03-17T19:12:38.881Z,826.00
2023-03-17T19:16:39.059Z,822.00
2023-03-17T19:20:39.157Z,824.00
2023-03-17T19:24:39.289Z,816.00
2023-03-17T19:28:39.381Z,806.00
2023-03-17T19:32:39.726Z,815.00
2023-03-17T19:36:39.623Z,810.00
2023-03-17T19:40:39.696Z,808.00
2023-03-17T19:44:39.850Z,805.00
2023-03-17T19:48:40.047Z,792.00
2023-03-17T19:52:40.179Z,791.00
2023-03-17T19:56:40.396Z,789.00
2023-03-17T20:00:40.499Z,776.00
2023-03-17T20:04:40.659Z,781.00
2023-03-17T20:08:40.790Z,768.00
2023-03-17T20:12:40.824Z,769.00
2023-03-17T20:16:41.527Z,761.00
2023-03-17T20:20:41.177Z,769.00
2023-03-17T20:24:41.389Z,753.00
2023-03-17T20:28:41.503Z,745.00
2023-03-17T20:32:41.625Z,743.00
2023-03-17T20:36:41.597Z,747.00
2023-03-17T20:40:41.626Z,736.00
2023-03-17T20:44:41.679Z,733.00
2023-03-17T20:48:41.723Z,737.00
2023-03-17T20:52:41.702Z,722.00
2023-03-17T20:56:41.744Z,705.00
2023-03-17T21:00:41.827Z,702.00
2023-03-17T21:04:41.922Z,699.00
2023-03-17T21:08:41.880Z,714.00
2023-03-17T21:12:41.977Z,696.00
2023-03-17T21:16:41.944Z,692.00
2023-03-17T21:20:41.939Z,692.00
2023-03-17T21:24:42.011Z,686.00
2023-03-17T21:28:42.017Z,673.00
2023-03-17T21:32:42.130Z,674.00
2023-03-17T21:36:41.994Z,656.00
2023-03-17T21:40:42.075Z,656.00
2023-03-17T21:44:42.118Z,651.00
2023-03-17T21:48:42.082Z,647.00
2023-03-17T21:52:42.081Z,649.00
2023-03-17T21:56:42.061Z,640.00
2023-03-17T22:00:45.617Z,639.00
2023-03-17T22:04:42.110Z,638.00
2023-03-17T22:08:42.013Z,635.00
2023-03-17T22:12:41.954Z,629.00
2023-03-17T22:16:42.077Z,625.00
2023-03-17T22:20:41.855Z,626.00
2023-03-17T22:24:41.800Z,631.00
2023-03-17T22:28:41.765Z,614.00
2023-03-17T22:32:41.763Z,620.00
2023-03-17T22:36:41.638Z,617.00
2023-03-17T22:40:41.633Z,614.00
2023-03-17T22:44:41.590Z,621.00
2023-03-17T22:48:41.543Z,616.00
2023-03-17T22:52:41.513Z,611.00
2023-03-17T22:56:41.496Z,607.00
2023-03-17T23:00:41.474Z,611.00
2023-03-17T23:04:41.529Z,601.00
2023-03-17T23:08:41.476Z,595.00
2023-03-17T23:12:41.499Z,586.00
2023-03-17T23:16:41.575Z,578.00
2023-03-17T23:20:41.469Z,568.00
2023-03-17T23:24:41.433Z,576.00
2023-03-17T23:28:41.455Z,566.00
2023-03-17T23:32:41.459Z,561.00
2023-03-17T23:36:41.405Z,566.00
2023-03-17T23:40:41.370Z,554.00
2023-03-17T23:44:41.341Z,557.00
2023-03-17T23:48:42.639Z,561.00
2023-03-17T23:52:41.327Z,554.00
2023-03-17T23:56:41.303Z,558.00
